Time;durP1;ratioP1;P1;durP2;ratioP2;P2;SDS_P1;SDS_P2;PMS_P1;PMS_P2;Temp;Humidity;BMP_temperature;BMP_pressure;BME280_temperature;BME280_humidity;BME280_pressure;Samples;Min_cycle;Max_cycle;Signal;HPM_P1;HPM_P2
2023/04/07 00:01:34;;;;;;;6.47;5.68;;;;;;;;;;5031562;28;20091;-55
2023/04/07 00:03:59;;;;;;;6.95;6.15;;;;;;;;;;5030587;28;20030;-56
2023/04/07 00:06:26;;;;;;;6.70;6.03;;;;;;;;;;5031496;28;20119;-56
2023/04/07 00:08:51;;;;;;;6.32;5.80;;;;;;;;;;5031394;28;20038;-56
2023/04/07 00:11:17;;;;;;;7.00;6.22;;;;;;;;;;5031479;28;20018;-56
2023/04/07 00:13:42;;;;;;;6.75;6.15;;;;;;;;;;5031822;28;20349;-56
2023/04/07 00:16:07;;;;;;;7.18;6.53;;;;;;;;;;5033559;28;20362;-56
2023/04/07 00:18:33;;;;;;;7.03;6.40;;;;;;;;;;5016027;28;20034;-56
2023/04/07 00:20:58;;;;;;;7.25;6.60;;;;;;;;;;5015759;28;20038;-56
2023/04/07 00:23:24;;;;;;;7.28;6.47;;;;;;;;;;5016162;28;20029;-56
2023/04/07 00:25:49;;;;;;;7.28;6.57;;;;;;;;;;5033740;28;20116;-56
2023/04/07 00:28:15;;;;;;;7.13;6.53;;;;;;;;;;5033659;28;20036;-56
2023/04/07 00:30:40;;;;;;;7.05;6.45;;;;;;;;;;5035053;28;20034;-56
2023/04/07 00:33:05;;;;;;;7.43;6.72;;;;;;;;;;5036367;28;20029;-56
2023/04/07 00:35:31;;;;;;;7.95;7.15;;;;;;;;;;5037415;28;20064;-56
2023/04/07 00:37:56;;;;;;;7.72;7.03;;;;;;;;;;5036440;28;20032;-56
2023/04/07 00:40:22;;;;;;;8.15;7.35;;;;;;;;;;5037382;28;20040;-56
2023/04/07 00:42:47;;;;;;;8.05;7.25;;;;;;;;;;5037794;28;20071;-56
2023/04/07 00:45:13;;;;;;;8.63;7.75;;;;;;;;;;5037723;28;20487;-56
2023/04/07 00:47:38;;;;;;;8.15;7.40;;;;;;;;;;5019508;28;20053;-56
2023/04/07 00:50:04;;;;;;;9.40;7.57;;;;;;;;;;5019426;28;20037;-56
2023/04/07 00:52:31;;;;;;;8.10;7.40;;;;;;;;;;5037243;28;20193;-56
2023/04/07 00:54:56;;;;;;;8.57;7.63;;;;;;;;;;5035956;28;20025;-55
2023/04/07 00:57:22;;;;;;;9.90;8.57;;;;;;;;;;5036741;28;20026;-56
2023/04/07 00:59:49;;;;;;;8.63;7.63;;;;;;;;;;5003080;28;20033;-56
2023/04/07 01:02:35;;;;;;;8.13;7.32;;;;;;;;;;5036701;28;20438;-55
2023/04/07 01:05:10;;;;;;;9.05;8.15;;;;;;;;;;5037103;28;20030;-56
2023/04/07 01:07:38;;;;;;;8.52;7.72;;;;;;;;;;5035459;28;20364;-55
2023/04/07 01:10:10;;;;;;;8.32;7.53;;;;;;;;;;5035907;28;20057;-56
2023/04/07 01:12:58;;;;;;;8.00;7.20;;;;;;;;;;5035914;28;20120;-56
2023/04/07 01:15:27;;;;;;;8.30;7.57;;;;;;;;;;5002945;28;20021;-56
2023/04/07 01:17:56;;;;;;;8.13;7.30;;;;;;;;;;5036834;28;20053;-56
2023/04/07 01:20:25;;;;;;;8.43;6.93;;;;;;;;;;5037108;28;20029;-56
2023/04/07 01:22:58;;;;;;;8.05;7.35;;;;;;;;;;5035473;28;20026;-55
2023/04/07 01:25:33;;;;;;;7.28;6.57;;;;;;;;;;5035966;28;20026;-56
2023/04/07 01:27:59;;;;;;;9.65;7.13;;;;;;;;;;5019388;28;20426;-55
2023/04/07 01:30:26;;;;;;;8.38;6.88;;;;;;;;;;5036662;28;20029;-55
2023/04/07 01:32:52;;;;;;;7.72;7.03;;;;;;;;;;5019076;28;20113;-56
2023/04/07 01:35:18;;;;;;;7.07;6.47;;;;;;;;;;5035110;28;20120;-55
2023/04/07 01:37:45;;;;;;;7.72;6.95;;;;;;;;;;5036549;28;20049;-55
2023/04/07 01:40:11;;;;;;;7.65;6.95;;;;;;;;;;5035033;28;20033;-55
2023/04/07 01:42:37;;;;;;;7.57;6.88;;;;;;;;;;5017457;28;20376;-55
2023/04/07 01:45:03;;;;;;;7.97;7.15;;;;;;;;;;5036423;28;20041;-55
2023/04/07 01:47:29;;;;;;;8.60;7.80;;;;;;;;;;5034991;28;20132;-55
2023/04/07 01:50:00;;;;;;;7.63;6.93;;;;;;;;;;5036310;28;20029;-55
2023/04/07 01:52:25;;;;;;;7.43;6.80;;;;;;;;;;5036222;28;20037;-55
2023/04/07 01:54:52;;;;;;;7.82;7.03;;;;;;;;;;5034517;28;20022;-55
2023/04/07 01:57:17;;;;;;;7.60;6.80;;;;;;;;;;5036228;28;20045;-55
2023/04/07 01:59:42;;;;;;;8.52;7.72;;;;;;;;;;5034904;28;20399;-55
2023/04/07 02:02:08;;;;;;;7.35;6.70;;;;;;;;;;5018166;28;20037;-55
2023/04/07 02:04:37;;;;;;;7.85;7.05;;;;;;;;;;5036024;28;20072;-55
2023/04/07 02:07:14;;;;;;;7.38;6.68;;;;;;;;;;5035986;28;20041;-56
2023/04/07 02:09:44;;;;;;;7.63;6.93;;;;;;;;;;5019113;28;20029;-56
2023/04/07 02:12:11;;;;;;;6.95;6.35;;;;;;;;;;5034605;28;20029;-56
2023/04/07 02:14:42;;;;;;;7.78;6.97;;;;;;;;;;5034566;28;20049;-56
2023/04/07 02:17:12;;;;;;;7.78;7.05;;;;;;;;;;5017984;28;20033;-56
2023/04/07 02:19:38;;;;;;;8.15;7.32;;;;;;;;;;5034465;28;20372;-56
2023/04/07 02:22:04;;;;;;;8.27;7.32;;;;;;;;;;5035808;28;20027;-56
2023/04/07 02:24:29;;;;;;;8.50;7.10;;;;;;;;;;5035522;28;20041;-56
2023/04/07 02:26:55;;;;;;;7.38;6.70;;;;;;;;;;5017715;28;20066;-56
2023/04/07 02:29:20;;;;;;;8.43;7.63;;;;;;;;;;5035434;28;20029;-56
2023/04/07 02:31:46;;;;;;;7.90;7.20;;;;;;;;;;5035695;28;20075;-57
2023/04/07 02:34:11;;;;;;;7.93;6.97;;;;;;;;;;5017542;28;20041;-63
2023/04/07 02:36:37;;;;;;;8.10;7.30;;;;;;;;;;5034201;28;20021;-63
2023/04/07 02:39:05;;;;;;;6.75;6.15;;;;;;;;;;5035262;28;20029;-57
2023/04/07 02:41:30;;;;;;;7.30;6.55;;;;;;;;;;5047365;23;20061;-62
2023/04/07 02:43:58;;;;;;;7.25;6.55;;;;;;;;;;5017588;28;20467;-63
2023/04/07 02:46:28;;;;;;;7.78;6.97;;;;;;;;;;5009296;28;20072;-63
2023/04/07 02:48:54;;;;;;;7.40;6.70;;;;;;;;;;5013881;28;20037;-63
2023/04/07 02:51:22;;;;;;;7.32;6.70;;;;;;;;;;5015273;28;20042;-62
2023/04/07 02:53:47;;;;;;;7.75;7.00;;;;;;;;;;5013854;28;20110;-62
2023/04/07 02:56:15;;;;;;;7.93;7.15;;;;;;;;;;5013944;28;20416;-62
2023/04/07 02:58:40;;;;;;;9.35;7.63;;;;;;;;;;5014269;28;20360;-62
2023/04/07 03:01:06;;;;;;;7.50;6.80;;;;;;;;;;5013836;28;20033;-63
2023/04/07 03:03:33;;;;;;;7.50;6.75;;;;;;;;;;5013462;28;20038;-63
2023/04/07 03:06:06;;;;;;;8.38;7.60;;;;;;;;;;5013809;28;20022;-63
2023/04/07 03:08:35;;;;;;;8.55;7.68;;;;;;;;;;5013617;28;20033;-63
2023/04/07 03:11:00;;;;;;;8.10;6.97;;;;;;;;;;5013628;28;20375;-62
2023/04/07 03:13:29;;;;;;;9.40;7.75;;;;;;;;;;5013709;28;20021;-62
2023/04/07 03:15:55;;;;;;;8.48;7.20;;;;;;;;;;5013435;28;20026;-62
2023/04/07 03:18:22;;;;;;;8.65;7.75;;;;;;;;;;5013436;28;20025;-62
2023/04/07 03:20:48;;;;;;;8.77;7.90;;;;;;;;;;5013599;28;20030;-62
2023/04/07 03:23:15;;;;;;;7.07;6.43;;;;;;;;;;5013465;28;20068;-62
2023/04/07 03:25:40;;;;;;;8.23;7.43;;;;;;;;;;5013615;28;20062;-62
2023/04/07 03:28:07;;;;;;;8.38;7.50;;;;;;;;;;5013162;28;20522;-61
2023/04/07 03:30:36;;;;;;;7.95;7.15;;;;;;;;;;5013420;28;20479;-62
2023/04/07 03:33:01;;;;;;;9.07;8.23;;;;;;;;;;5014643;28;20030;-61
2023/04/07 03:35:29;;;;;;;8.63;7.75;;;;;;;;;;4997566;28;20073;-62
2023/04/07 03:37:54;;;;;;;9.43;7.80;;;;;;;;;;5014545;28;20038;-61
2023/04/07 03:40:20;;;;;;;9.02;7.90;;;;;;;;;;5014721;28;20049;-62
2023/04/07 03:42:46;;;;;;;8.63;7.65;;;;;;;;;;5013180;28;20446;-62
2023/04/07 03:45:13;;;;;;;8.63;7.60;;;;;;;;;;4996634;28;20034;-62
2023/04/07 03:47:43;;;;;;;7.57;6.78;;;;;;;;;;4996939;28;20080;-62
2023/04/07 03:50:10;;;;;;;8.40;7.53;;;;;;;;;;5013053;28;20092;-63
2023/04/07 03:52:46;;;;;;;8.27;7.43;;;;;;;;;;5013196;28;20037;-60
2023/04/07 03:55:20;;;;;;;8.70;7.80;;;;;;;;;;5014045;28;20116;-60
2023/04/07 03:57:46;;;;;;;8.60;7.70;;;;;;;;;;4996536;28;20045;-60
2023/04/07 04:00:12;;;;;;;8.18;7.38;;;;;;;;;;5013059;28;20542;-61
2023/04/07 04:02:53;;;;;;;8.20;7.40;;;;;;;;;;5014122;28;20460;-60
2023/04/07 04:05:19;;;;;;;8.30;7.53;;;;;;;;;;5012321;28;20030;-59
2023/04/07 04:07:44;;;;;;;8.80;7.55;;;;;;;;;;4996138;28;20516;-59
2023/04/07 04:10:10;;;;;;;9.90;7.47;;;;;;;;;;5012810;28;20037;-60
2023/04/07 04:12:40;;;;;;;8.43;7.63;;;;;;;;;;4996748;28;20358;-60
2023/04/07 04:15:08;;;;;;;8.75;7.63;;;;;;;;;;5012814;28;20026;-59
2023/04/07 04:17:34;;;;;;;8.60;7.78;;;;;;;;;;4995787;28;20457;-60
2023/04/07 04:20:00;;;;;;;8.60;7.70;;;;;;;;;;5012358;28;20088;-60
2023/04/07 04:22:37;;;;;;;7.63;6.68;;;;;;;;;;4996317;28;20033;-60
2023/04/07 04:25:03;;;;;;;7.40;6.65;;;;;;;;;;5013106;28;20034;-60
2023/04/07 04:27:32;;;;;;;7.53;6.82;;;;;;;;;;4996361;28;20026;-60
2023/04/07 04:30:04;;;;;;;7.47;6.80;;;;;;;;;;5012868;28;20428;-60
2023/04/07 04:32:41;;;;;;;7.13;6.50;;;;;;;;;;5013618;28;20026;-60
2023/04/07 04:35:08;;;;;;;6.70;6.10;;;;;;;;;;5012862;28;20037;-62
2023/04/07 04:37:41;;;;;;;7.60;6.82;;;;;;;;;;5013016;28;20029;-63
2023/04/07 04:40:10;;;;;;;7.22;6.50;;;;;;;;;;5011782;28;20122;-63
2023/04/07 04:42:36;;;;;;;6.25;5.75;;;;;;;;;;5025703;28;20065;-63
2023/04/07 04:45:03;;;;;;;6.97;6.38;;;;;;;;;;4996130;28;20034;-63
2023/04/07 04:47:30;;;;;;;7.28;6.57;;;;;;;;;;4995438;28;20042;-63
2023/04/07 04:49:56;;;;;;;7.60;6.35;;;;;;;;;;4995923;28;20034;-63
2023/04/07 04:52:22;;;;;;;7.15;6.45;;;;;;;;;;4995803;28;20041;-63
2023/04/07 04:54:49;;;;;;;6.68;5.97;;;;;;;;;;4995750;28;20030;-63
2023/04/07 04:57:17;;;;;;;6.63;6.03;;;;;;;;;;5011743;28;20030;-63
2023/04/07 04:59:42;;;;;;;6.35;5.75;;;;;;;;;;5013455;28;20400;-63
2023/04/07 05:02:08;;;;;;;6.97;6.13;;;;;;;;;;4995369;28;20022;-63
2023/04/07 05:04:33;;;;;;;6.57;5.97;;;;;;;;;;4995173;28;20502;-64
2023/04/07 05:07:09;;;;;;;5.90;5.18;;;;;;;;;;5012002;28;20053;-63
2023/04/07 05:09:34;;;;;;;6.60;6.00;;;;;;;;;;4995468;28;20034;-64
2023/04/07 05:12:01;;;;;;;6.60;6.00;;;;;;;;;;4995316;28;20530;-63
2023/04/07 05:14:30;;;;;;;6.63;6.03;;;;;;;;;;4994604;28;20022;-64
2023/04/07 05:17:02;;;;;;;7.60;6.70;;;;;;;;;;5014747;28;20009;-66
2023/04/07 05:19:28;;;;;;;6.63;5.97;;;;;;;;;;5036121;28;20025;-63
2023/04/07 05:21:58;;;;;;;7.88;6.45;;;;;;;;;;5019092;28;20116;-63
2023/04/07 05:24:28;;;;;;;7.00;6.30;;;;;;;;;;5018387;28;20528;-63
2023/04/07 05:26:56;;;;;;;8.30;6.57;;;;;;;;;;5018772;28;20423;-63
2023/04/07 05:29:22;;;;;;;8.50;6.57;;;;;;;;;;5018372;28;20037;-63
2023/04/07 05:31:47;;;;;;;7.07;6.38;;;;;;;;;;5018813;28;20021;-63
2023/04/07 05:34:14;;;;;;;6.65;5.95;;;;;;;;;;5018557;28;20014;-63
2023/04/07 05:36:46;;;;;;;6.93;6.22;;;;;;;;;;5018199;28;20487;-63
2023/04/07 05:39:11;;;;;;;7.65;6.72;;;;;;;;;;5036726;28;20053;-63
2023/04/07 05:41:37;;;;;;;7.05;6.35;;;;;;;;;;5018470;28;20040;-63
2023/04/07 05:44:03;;;;;;;7.78;6.47;;;;;;;;;;5018373;28;20022;-63
2023/04/07 05:46:32;;;;;;;7.20;6.43;;;;;;;;;;5018643;28;20033;-62
2023/04/07 05:48:58;;;;;;;8.30;6.70;;;;;;;;;;5017628;28;20053;-62
2023/04/07 05:51:25;;;;;;;7.72;6.90;;;;;;;;;;5018009;28;20021;-63
2023/04/07 05:53:52;;;;;;;7.15;6.45;;;;;;;;;;5001919;28;20419;-62
2023/04/07 05:56:21;;;;;;;6.72;5.70;;;;;;;;;;5017919;28;20033;-62
2023/04/07 05:58:47;;;;;;;7.07;6.38;;;;;;;;;;5017999;28;20036;-62
2023/04/07 06:01:14;;;;;;;6.30;4.85;;;;;;;;;;5017885;28;20034;-63
2023/04/07 06:03:40;;;;;;;7.28;6.63;;;;;;;;;;5017423;28;20029;-63
2023/04/07 06:06:15;;;;;;;8.43;6.55;;;;;;;;;;5032633;28;20017;-63
2023/04/07 06:08:41;;;;;;;8.05;7.03;;;;;;;;;;5032296;28;20087;-62
2023/04/07 06:11:06;;;;;;;6.95;6.30;;;;;;;;;;5015042;28;20030;-62
2023/04/07 06:13:33;;;;;;;7.57;6.68;;;;;;;;;;5014280;28;20459;-63
2023/04/07 06:15:58;;;;;;;7.30;6.40;;;;;;;;;;5014067;28;20101;-62
2023/04/07 06:18:23;;;;;;;7.10;6.40;;;;;;;;;;4997367;28;20033;-63
2023/04/07 06:20:49;;;;;;;7.45;6.75;;;;;;;;;;5031895;28;20037;-63
2023/04/07 06:23:14;;;;;;;6.63;5.90;;;;;;;;;;5031539;28;20434;-62
2023/04/07 06:25:40;;;;;;;6.97;6.28;;;;;;;;;;5014352;28;20064;-62
2023/04/07 06:28:06;;;;;;;6.88;6.25;;;;;;;;;;5032440;28;20032;-62
2023/04/07 06:30:31;;;;;;;6.45;5.78;;;;;;;;;;5034110;28;20025;-62
2023/04/07 06:32:58;;;;;;;7.85;6.50;;;;;;;;;;5015915;28;20543;-62
2023/04/07 06:35:25;;;;;;;7.60;6.30;;;;;;;;;;5016535;28;20040;-62
2023/04/07 06:37:51;;;;;;;7.45;6.65;;;;;;;;;;5034836;28;20026;-54
2023/04/07 06:40:38;;;;;;;5.85;5.35;;;;;;;;;;5032376;23;20050;-55
2023/04/07 06:43:03;;;;;;;6.68;5.85;;;;;;;;;;5021524;23;21820;-55
2023/04/07 06:45:50;;;;;;;6.82;6.18;;;;;;;;;;5069825;22;20065;-61
2023/04/07 06:48:15;;;;;;;8.52;7.68;;;;;;;;;;5031434;28;20049;-54
2023/04/07 06:50:40;;;;;;;9.13;7.57;;;;;;;;;;5034410;28;20060;-54
2023/04/07 06:53:06;;;;;;;9.63;7.13;;;;;;;;;;5033245;28;20124;-54
2023/04/07 06:55:31;;;;;;;7.97;6.55;;;;;;;;;;5016834;28;20038;-54
2023/04/07 06:57:56;;;;;;;6.88;6.18;;;;;;;;;;5034425;28;20025;-54
2023/04/07 07:00:21;;;;;;;7.32;6.43;;;;;;;;;;5034374;28;20029;-54
2023/04/07 07:02:49;;;;;;;8.10;5.90;;;;;;;;;;5016870;28;20112;-59
2023/04/07 07:05:15;;;;;;;8.88;6.55;;;;;;;;;;5034156;28;20060;-52
2023/04/07 07:07:40;;;;;;;7.57;6.25;;;;;;;;;;5016626;28;20034;-59
2023/04/07 07:10:07;;;;;;;6.45;5.80;;;;;;;;;;5032903;28;20448;-60
2023/04/07 07:12:32;;;;;;;6.45;5.53;;;;;;;;;;5034222;28;20383;-62
2023/04/07 07:14:58;;;;;;;6.70;5.63;;;;;;;;;;5016474;28;20017;-62
2023/04/07 07:17:23;;;;;;;6.30;5.70;;;;;;;;;;5034093;28;20030;-62
2023/04/07 07:19:49;;;;;;;6.82;6.22;;;;;;;;;;5033969;28;20037;-62
2023/04/07 07:22:14;;;;;;;8.63;6.60;;;;;;;;;;5033964;28;20441;-62
2023/04/07 07:24:39;;;;;;;7.10;6.40;;;;;;;;;;5033922;28;20084;-62
2023/04/07 07:27:05;;;;;;;7.80;6.72;;;;;;;;;;5033901;28;20029;-62
2023/04/07 07:29:30;;;;;;;7.35;5.97;;;;;;;;;;5033747;28;20167;-63
2023/04/07 07:31:56;;;;;;;7.68;6.80;;;;;;;;;;5033744;28;20029;-62
2023/04/07 07:34:21;;;;;;;9.60;7.40;;;;;;;;;;5033754;28;20112;-62
2023/04/07 07:36:46;;;;;;;7.97;6.45;;;;;;;;;;5033701;28;20126;-62
2023/04/07 07:39:13;;;;;;;7.13;6.43;;;;;;;;;;5033610;28;20026;-62
2023/04/07 07:41:38;;;;;;;8.32;6.63;;;;;;;;;;5033615;28;20434;-62
2023/04/07 07:44:03;;;;;;;8.05;6.63;;;;;;;;;;5033193;28;20033;-62
2023/04/07 07:46:29;;;;;;;8.82;6.85;;;;;;;;;;5033333;28;20044;-62
2023/04/07 07:48:54;;;;;;;9.73;7.32;;;;;;;;;;5033464;28;20025;-62
2023/04/07 07:51:20;;;;;;;9.25;7.53;;;;;;;;;;5015727;28;20442;-62
2023/04/07 07:53:46;;;;;;;8.68;7.57;;;;;;;;;;5033531;28;20056;-63
2023/04/07 07:56:11;;;;;;;10.15;7.30;;;;;;;;;;5033445;28;20460;-63
2023/04/07 07:58:37;;;;;;;8.50;7.47;;;;;;;;;;5033364;28;20424;-62
2023/04/07 08:01:02;;;;;;;8.50;7.53;;;;;;;;;;5033659;28;20071;-63
2023/04/07 08:03:27;;;;;;;10.80;8.13;;;;;;;;;;5033334;28;20029;-62
2023/04/07 08:05:53;;;;;;;8.75;7.68;;;;;;;;;;5015655;28;20144;-62
2023/04/07 08:08:18;;;;;;;9.15;7.85;;;;;;;;;;5033272;28;20030;-62
2023/04/07 08:10:43;;;;;;;11.27;9.07;;;;;;;;;;5033159;28;20038;-62
2023/04/07 08:13:09;;;;;;;10.63;8.55;;;;;;;;;;5033377;28;20025;-62
2023/04/07 08:15:34;;;;;;;10.48;8.35;;;;;;;;;;5033178;28;20029;-62
2023/04/07 08:18:01;;;;;;;9.82;7.97;;;;;;;;;;5015575;28;20357;-62
2023/04/07 08:20:27;;;;;;;9.50;8.43;;;;;;;;;;5015570;28;20108;-62
2023/04/07 08:22:52;;;;;;;10.35;8.60;;;;;;;;;;5015442;28;20072;-62
2023/04/07 08:25:18;;;;;;;9.77;8.25;;;;;;;;;;5033145;28;20037;-62
2023/04/07 08:27:43;;;;;;;10.43;8.32;;;;;;;;;;5033134;28;20029;-62
2023/04/07 08:30:09;;;;;;;10.68;8.25;;;;;;;;;;5033084;28;20021;-62
2023/04/07 08:32:35;;;;;;;10.05;8.02;;;;;;;;;;5033049;28;20030;-62
2023/04/07 08:35:01;;;;;;;11.30;8.95;;;;;;;;;;5031713;28;20018;-62
2023/04/07 08:37:26;;;;;;;10.98;9.07;;;;;;;;;;5031836;28;20384;-62
2023/04/07 08:39:52;;;;;;;10.60;9.00;;;;;;;;;;5033119;28;20021;-62
2023/04/07 08:42:18;;;;;;;10.93;9.05;;;;;;;;;;5032956;28;20091;-62
2023/04/07 08:44:46;;;;;;;12.43;9.10;;;;;;;;;;5032731;28;20586;-62
2023/04/07 08:47:12;;;;;;;11.05;8.80;;;;;;;;;;5032854;28;20053;-62
2023/04/07 08:49:38;;;;;;;10.93;8.63;;;;;;;;;;5032771;28;20037;-62
2023/04/07 08:52:05;;;;;;;12.80;9.13;;;;;;;;;;5036031;28;20061;-62
2023/04/07 08:54:32;;;;;;;12.70;9.38;;;;;;;;;;5036965;28;20038;-62
2023/04/07 08:56:58;;;;;;;10.15;8.95;;;;;;;;;;5036651;28;20034;-62
2023/04/07 08:59:27;;;;;;;10.88;8.40;;;;;;;;;;5036628;28;20113;-62
2023/04/07 09:01:53;;;;;;;10.63;8.35;;;;;;;;;;5036565;28;20115;-62
2023/04/07 09:04:18;;;;;;;10.32;8.30;;;;;;;;;;5036390;28;20087;-62
2023/04/07 09:06:43;;;;;;;11.48;8.32;;;;;;;;;;5036498;28;20026;-62
2023/04/07 09:09:09;;;;;;;10.68;8.32;;;;;;;;;;5035265;28;20079;-62
2023/04/07 09:11:35;;;;;;;13.02;8.73;;;;;;;;;;5036282;28;20029;-62
2023/04/07 09:14:00;;;;;;;11.27;8.70;;;;;;;;;;5036292;28;20017;-62
2023/04/07 09:16:31;;;;;;;11.65;9.05;;;;;;;;;;5036250;28;20472;-62
2023/04/07 09:18:57;;;;;;;10.93;8.38;;;;;;;;;;5018411;28;20036;-63
2023/04/07 09:21:22;;;;;;;11.60;8.90;;;;;;;;;;5036071;28;20116;-62
2023/04/07 09:23:48;;;;;;;13.20;9.40;;;;;;;;;;5036146;28;20102;-62
2023/04/07 09:26:16;;;;;;;13.45;10.07;;;;;;;;;;5036131;28;20036;-62
2023/04/07 09:28:46;;;;;;;14.93;10.45;;;;;;;;;;5036344;28;20034;-63
2023/04/07 09:31:13;;;;;;;12.73;9.07;;;;;;;;;;5035980;28;20112;-63
2023/04/07 09:33:39;;;;;;;13.15;10.23;;;;;;;;;;5036036;28;20034;-62
2023/04/07 09:36:09;;;;;;;15.30;10.10;;;;;;;;;;5036001;28;20163;-62
2023/04/07 09:38:38;;;;;;;13.75;9.57;;;;;;;;;;5035888;28;20471;-62
2023/04/07 09:41:10;;;;;;;12.05;9.35;;;;;;;;;;5035747;28;20383;-63
2023/04/07 09:43:40;;;;;;;13.05;9.30;;;;;;;;;;5035764;28;20041;-62
2023/04/07 09:46:09;;;;;;;12.02;8.43;;;;;;;;;;5035513;28;20029;-62
2023/04/07 09:48:35;;;;;;;11.63;9.02;;;;;;;;;;5035684;28;20044;-62
2023/04/07 09:51:07;;;;;;;12.85;9.85;;;;;;;;;;5035576;28;20029;-62
2023/04/07 09:53:40;;;;;;;12.93;9.18;;;;;;;;;;5035541;28;20468;-62
2023/04/07 09:56:06;;;;;;;10.70;8.90;;;;;;;;;;5035543;28;20077;-62
2023/04/07 09:58:31;;;;;;;11.68;8.77;;;;;;;;;;5035419;28;20451;-62
2023/04/07 10:00:57;;;;;;;11.90;9.35;;;;;;;;;;5035434;28;20040;-63
2023/04/07 10:03:22;;;;;;;11.35;8.32;;;;;;;;;;5034324;28;20091;-63
2023/04/07 10:05:48;;;;;;;10.75;8.77;;;;;;;;;;5035380;28;20472;-62
2023/04/07 10:08:14;;;;;;;9.85;8.25;;;;;;;;;;5035347;28;20037;-62
2023/04/07 10:10:40;;;;;;;9.00;7.40;;;;;;;;;;5035244;28;20029;-62
2023/04/07 10:13:05;;;;;;;9.90;7.75;;;;;;;;;;5035275;28;20020;-62
2023/04/07 10:15:31;;;;;;;11.10;8.43;;;;;;;;;;5035188;28;20374;-62
2023/04/07 10:17:57;;;;;;;12.60;8.90;;;;;;;;;;5035180;28;20020;-62
2023/04/07 10:20:23;;;;;;;12.25;8.45;;;;;;;;;;5035165;28;20033;-62
2023/04/07 10:22:50;;;;;;;12.00;8.95;;;;;;;;;;5035102;28;20041;-62
2023/04/07 10:25:16;;;;;;;14.15;9.15;;;;;;;;;;5034977;28;20033;-63
2023/04/07 10:27:49;;;;;;;7.00;6.20;;;;;;;;;;5034905;28;20037;-63
2023/04/07 10:30:22;;;;;;;10.05;7.53;;;;;;;;;;5034658;28;20112;-63
2023/04/07 10:32:48;;;;;;;9.05;6.90;;;;;;;;;;5033270;28;20025;-63
2023/04/07 10:35:16;;;;;;;8.93;7.03;;;;;;;;;;5034785;28;20467;-63
2023/04/07 10:38:01;;;;;;;9.52;8.00;;;;;;;;;;5035182;28;20022;-63
2023/04/07 10:40:26;;;;;;;10.20;7.60;;;;;;;;;;5034339;28;20041;-63
2023/04/07 10:42:52;;;;;;;10.48;7.93;;;;;;;;;;5034301;28;20026;-63
2023/04/07 10:45:37;;;;;;;8.80;6.90;;;;;;;;;;5033351;28;20029;-63
2023/04/07 10:48:02;;;;;;;11.57;8.32;;;;;;;;;;5034118;28;20049;-63
2023/04/07 10:50:28;;;;;;;8.90;7.63;;;;;;;;;;5033956;28;20044;-63
2023/04/07 10:53:09;;;;;;;12.07;8.32;;;;;;;;;;5034469;28;20025;-63
2023/04/07 10:55:38;;;;;;;12.20;9.25;;;;;;;;;;5034378;28;20025;-63
2023/04/07 10:58:24;;;;;;;10.35;8.35;;;;;;;;;;5032807;28;20060;-63
2023/04/07 11:01:13;;;;;;;10.25;7.68;;;;;;;;;;5032687;28;20491;-63
2023/04/07 11:03:41;;;;;;;10.43;8.32;;;;;;;;;;5015234;28;20481;-63
2023/04/07 11:06:10;;;;;;;10.38;7.75;;;;;;;;;;5032895;28;20033;-63
2023/04/07 11:08:43;;;;;;;10.45;8.35;;;;;;;;;;5032934;28;20036;-63
2023/04/07 11:11:10;;;;;;;10.13;7.38;;;;;;;;;;5032920;28;20079;-63
2023/04/07 11:13:47;;;;;;;9.57;6.80;;;;;;;;;;5032479;28;20025;-63
2023/04/07 11:16:13;;;;;;;8.60;7.32;;;;;;;;;;5032989;28;20076;-63
2023/04/07 11:18:39;;;;;;;7.22;6.35;;;;;;;;;;5033017;28;20056;-62
2023/04/07 11:21:05;;;;;;;8.48;7.00;;;;;;;;;;5015242;28;20033;-62
2023/04/07 11:23:40;;;;;;;8.32;6.78;;;;;;;;;;5032626;28;20029;-63
2023/04/07 11:26:07;;;;;;;8.73;7.30;;;;;;;;;;5032917;28;20037;-62
2023/04/07 11:28:33;;;;;;;8.95;7.05;;;;;;;;;;5032912;28;20022;-62
2023/04/07 11:30:58;;;;;;;9.30;6.97;;;;;;;;;;5032912;28;20387;-54
2023/04/07 11:33:29;;;;;;;9.57;7.50;;;;;;;;;;5015315;28;20041;-55
2023/04/07 11:35:58;;;;;;;8.50;6.72;;;;;;;;;;5032513;28;20085;-63
2023/04/07 11:38:26;;;;;;;8.30;6.93;;;;;;;;;;5033424;28;20033;-62
2023/04/07 11:40:51;;;;;;;7.32;6.45;;;;;;;;;;5033641;28;20022;-62
2023/04/07 11:43:18;;;;;;;6.60;5.95;;;;;;;;;;5033499;28;20116;-63
2023/04/07 11:45:43;;;;;;;8.63;6.95;;;;;;;;;;5032666;28;20029;-63
2023/04/07 11:48:27;;;;;;;9.48;6.68;;;;;;;;;;5032782;28;20141;-62
2023/04/07 11:50:53;;;;;;;8.43;6.88;;;;;;;;;;5032259;28;20479;-63
2023/04/07 11:53:28;;;;;;;7.13;6.43;;;;;;;;;;5014772;28;20030;-62
2023/04/07 11:56:00;;;;;;;7.30;6.32;;;;;;;;;;5030702;28;20083;-62
2023/04/07 11:58:26;;;;;;;8.05;6.47;;;;;;;;;;5032403;28;20025;-62
2023/04/07 12:00:58;;;;;;;8.15;6.78;;;;;;;;;;5032298;28;20489;-63
2023/04/07 12:03:24;;;;;;;7.88;6.60;;;;;;;;;;5031982;28;20046;-64
2023/04/07 12:05:50;;;;;;;10.02;7.15;;;;;;;;;;5032419;28;20061;-63
2023/04/07 12:08:15;;;;;;;7.85;6.85;;;;;;;;;;5014764;28;20554;-60
2023/04/07 12:10:41;;;;;;;7.75;6.93;;;;;;;;;;5032205;28;20041;-60
2023/04/07 12:13:07;;;;;;;8.98;7.05;;;;;;;;;;5032158;28;20104;-61
2023/04/07 12:15:33;;;;;;;7.90;6.60;;;;;;;;;;5012860;28;20025;-60
2023/04/07 12:17:58;;;;;;;8.45;7.40;;;;;;;;;;5014399;28;20091;-60
2023/04/07 12:20:23;;;;;;;8.52;7.63;;;;;;;;;;5032292;28;20096;-60
2023/04/07 12:22:50;;;;;;;8.05;6.22;;;;;;;;;;5032173;28;20045;-60
2023/04/07 12:25:15;;;;;;;7.72;6.03;;;;;;;;;;5032310;28;20018;-60
2023/04/07 12:27:41;;;;;;;8.02;6.85;;;;;;;;;;5035099;28;20029;-60
2023/04/07 12:30:06;;;;;;;8.25;6.90;;;;;;;;;;5035879;28;20030;-60
2023/04/07 12:32:32;;;;;;;9.60;6.80;;;;;;;;;;5035189;28;20454;-60
2023/04/07 12:34:58;;;;;;;8.18;6.93;;;;;;;;;;5036064;28;20029;-60
2023/04/07 12:37:23;;;;;;;8.07;6.78;;;;;;;;;;5036126;28;20037;-60
2023/04/07 12:39:48;;;;;;;8.50;7.15;;;;;;;;;;5035957;28;20030;-60
2023/04/07 12:42:14;;;;;;;7.93;6.47;;;;;;;;;;5035184;28;20116;-61
2023/04/07 12:44:39;;;;;;;7.38;6.55;;;;;;;;;;5035990;28;20022;-61
2023/04/07 12:47:05;;;;;;;7.03;6.32;;;;;;;;;;5035554;28;20563;-60
2023/04/07 12:49:30;;;;;;;6.90;6.28;;;;;;;;;;5035675;28;20505;-61
2023/04/07 12:51:56;;;;;;;6.88;6.07;;;;;;;;;;5035916;28;20027;-61
2023/04/07 12:54:21;;;;;;;7.10;6.07;;;;;;;;;;5035604;28;20108;-62
2023/04/07 12:56:47;;;;;;;7.47;6.18;;;;;;;;;;5035659;28;20041;-62
2023/04/07 12:59:12;;;;;;;6.82;5.68;;;;;;;;;;5035676;28;20030;-63
2023/04/07 13:01:38;;;;;;;6.32;5.50;;;;;;;;;;5035637;28;20036;-62
2023/04/07 13:04:03;;;;;;;6.53;5.65;;;;;;;;;;5035688;28;20526;-64
2023/04/07 13:06:29;;;;;;;7.40;5.57;;;;;;;;;;5035412;28;20033;-62
2023/04/07 13:08:55;;;;;;;5.75;5.18;;;;;;;;;;5035980;28;20104;-63
2023/04/07 13:11:20;;;;;;;6.05;5.40;;;;;;;;;;5035607;28;20018;-62
2023/04/07 13:13:46;;;;;;;9.38;5.93;;;;;;;;;;5036382;28;20104;-59
2023/04/07 13:16:11;;;;;;;6.88;5.68;;;;;;;;;;5035483;28;20582;-60
2023/04/07 13:18:41;;;;;;;7.00;5.95;;;;;;;;;;5035885;28;20014;-59
2023/04/07 13:21:07;;;;;;;6.18;5.60;;;;;;;;;;5036110;28;20021;-59
2023/04/07 13:23:32;;;;;;;7.07;5.68;;;;;;;;;;5018805;28;20041;-60
2023/04/07 13:25:58;;;;;;;6.75;5.32;;;;;;;;;;5036186;28;20120;-59
2023/04/07 13:28:23;;;;;;;6.15;5.53;;;;;;;;;;5036663;28;20021;-59
2023/04/07 13:30:49;;;;;;;7.07;5.65;;;;;;;;;;5036134;28;20025;-59
2023/04/07 13:33:24;;;;;;;6.82;5.82;;;;;;;;;;5036418;28;20030;-59
2023/04/07 13:35:50;;;;;;;6.50;5.65;;;;;;;;;;5036161;28;20498;-59
2023/04/07 13:38:18;;;;;;;6.00;5.40;;;;;;;;;;5035945;28;20029;-59
2023/04/07 13:40:43;;;;;;;7.35;5.60;;;;;;;;;;5036092;28;20490;-58
2023/04/07 13:43:11;;;;;;;7.07;6.18;;;;;;;;;;5035885;28;20034;-59
2023/04/07 13:45:36;;;;;;;6.32;5.53;;;;;;;;;;5017306;28;20515;-51
2023/04/07 13:48:01;;;;;;;13.63;9.82;;;;;;;;;;5035400;28;20080;-59
2023/04/07 13:50:27;;;;;;;26.00;15.60;;;;;;;;;;5035715;28;20449;-59
2023/04/07 13:52:53;;;;;;;51.58;26.17;;;;;;;;;;5018040;28;20037;-59
2023/04/07 13:55:19;;;;;;;42.33;24.92;;;;;;;;;;5035475;28;20026;-59
2023/04/07 13:57:44;;;;;;;69.95;41.20;;;;;;;;;;5035333;28;20120;-59
2023/04/07 14:00:10;;;;;;;13.48;10.38;;;;;;;;;;5035021;28;20057;-59
2023/04/07 14:02:35;;;;;;;6.60;5.95;;;;;;;;;;5033946;28;20059;-61
2023/04/07 14:05:01;;;;;;;7.15;6.20;;;;;;;;;;5033320;28;20033;-61
2023/04/07 14:07:26;;;;;;;9.93;7.47;;;;;;;;;;5034397;28;20112;-61
2023/04/07 14:09:53;;;;;;;8.55;7.20;;;;;;;;;;5034438;28;20026;-62
2023/04/07 14:12:20;;;;;;;7.05;6.35;;;;;;;;;;5033396;28;20025;-61
2023/04/07 14:14:46;;;;;;;7.07;6.38;;;;;;;;;;5033106;28;20120;-62
2023/04/07 14:17:11;;;;;;;5.97;5.38;;;;;;;;;;5033873;28;20142;-62
2023/04/07 14:19:37;;;;;;;6.22;5.53;;;;;;;;;;5035135;28;20060;-62
2023/04/07 14:22:02;;;;;;;6.72;6.13;;;;;;;;;;5017037;28;20060;-61
2023/04/07 14:24:27;;;;;;;10.85;7.05;;;;;;;;;;5034859;28;20041;-62
2023/04/07 14:26:53;;;;;;;9.55;6.97;;;;;;;;;;5034877;28;20060;-62
2023/04/07 14:29:18;;;;;;;7.35;6.65;;;;;;;;;;5034871;28;20017;-54
2023/04/07 14:31:47;;;;;;;8.43;6.78;;;;;;;;;;5034684;28;20037;-53
2023/04/07 14:34:12;;;;;;;7.88;6.70;;;;;;;;;;5034987;28;20038;-54
2023/04/07 14:36:38;;;;;;;12.85;7.43;;;;;;;;;;5035359;28;20104;-57
2023/04/07 14:39:03;;;;;;;14.43;7.97;;;;;;;;;;5035188;28;20456;-54
2023/04/07 14:41:28;;;;;;;8.85;6.15;;;;;;;;;;5035222;28;20026;-53